Time;durP1;ratioP1;P1;durP2;ratioP2;P2;SDS_P1;SDS_P2;PMS_P1;PMS_P2;Temp;Humidity;BMP_temperature;BMP_pressure;BME280_temperature;BME280_humidity;BME280_pressure;Samples;Min_cycle;Max_cycle;Signal;HPM_P1;HPM_P2
2023/06/06 00:00:54;;;;;;;11.65;6.50;;;11.70;99.90;;;;;;6253493;22;20393;-94
2023/06/06 00:03:21;;;;;;;13.13;6.72;;;11.80;99.90;;;;;;6280037;22;20015;-94
2023/06/06 00:05:48;;;;;;;12.43;6.20;;;11.80;99.90;;;;;;6278981;22;19999;-95
2023/06/06 00:08:14;;;;;;;9.68;6.38;;;11.80;99.90;;;;;;6251615;22;20011;-95
2023/06/06 00:10:39;;;;;;;11.13;5.95;;;11.80;99.90;;;;;;6278880;22;20004;-94
2023/06/06 00:13:05;;;;;;;8.82;5.85;;;11.80;99.90;;;;;;6251903;22;20008;-94
2023/06/06 00:15:31;;;;;;;12.02;5.68;;;11.80;99.90;;;;;;6252274;22;20026;-93
2023/06/06 00:17:59;;;;;;;9.45;5.85;;;11.80;99.90;;;;;;6251941;22;20030;-94
2023/06/06 00:20:26;;;;;;;8.07;4.72;;;11.80;99.90;;;;;;6252278;22;20146;-94
2023/06/06 00:22:56;;;;;;;8.48;4.50;;;11.70;99.90;;;;;;6279663;22;20015;-94
2023/06/06 00:25:22;;;;;;;8.93;4.45;;;11.70;99.90;;;;;;6255421;22;20000;-94
2023/06/06 00:27:47;;;;;;;8.77;4.57;;;11.60;99.90;;;;;;6252993;22;20027;-92
2023/06/06 00:30:13;;;;;;;8.18;4.45;;;11.60;99.90;;;;;;6251878;22;19999;-93
2023/06/06 00:32:39;;;;;;;7.05;4.63;;;11.50;99.90;;;;;;6252065;22;20347;-93
2023/06/06 00:35:05;;;;;;;6.03;4.32;;;11.50;99.90;;;;;;6253426;22;20007;-93
2023/06/06 00:37:31;;;;;;;8.52;4.38;;;11.50;99.90;;;;;;6261022;22;20007;-90
2023/06/06 00:39:56;;;;;;;6.15;4.78;;;11.40;99.90;;;;;;6292234;22;20320;-91
2023/06/06 00:42:22;;;;;;;10.38;4.60;;;11.40;99.90;;;;;;6278304;22;20371;-95
2023/06/06 00:44:47;;;;;;;11.35;5.05;;;11.40;99.90;;;;;;6280743;22;20358;-94
2023/06/06 00:47:13;;;;;;;9.73;5.90;;;11.40;99.90;;;;;;6284148;22;20003;-88
2023/06/06 00:49:41;;;;;;;12.02;5.43;;;11.40;99.90;;;;;;6272744;22;20011;-87
2023/06/06 00:52:11;;;;;;;8.45;5.57;;;11.40;99.90;;;;;;6301314;22;20000;-85
2023/06/06 00:54:37;;;;;;;7.88;5.03;;;11.40;99.90;;;;;;6300571;22;20527;-91
2023/06/06 00:57:03;;;;;;;13.95;6.35;;;11.40;99.90;;;;;;6277571;22;20067;-86
2023/06/06 00:59:29;;;;;;;11.23;4.90;;;11.40;99.90;;;;;;6301350;22;20051;-91
2023/06/06 01:01:55;;;;;;;8.32;4.63;;;11.40;99.90;;;;;;6276449;22;20109;-88
2023/06/06 01:04:24;;;;;;;7.00;4.95;;;11.40;99.90;;;;;;6277249;22;20019;-87
2023/06/06 01:06:51;;;;;;;9.40;4.88;;;11.40;99.90;;;;;;6291878;22;20006;-94
2023/06/06 01:09:19;;;;;;;6.72;4.32;;;11.40;99.90;;;;;;6256829;22;20004;-93
2023/06/06 01:12:03;;;;;;;5.50;4.10;;;11.30;99.90;;;;;;6255288;22;20057;-94
2023/06/06 01:14:47;;;;;;;7.78;4.78;;;11.30;99.90;;;;;;6260971;22;20018;-92
2023/06/06 01:17:16;;;;;;;7.43;4.07;;;11.30;99.90;;;;;;6275471;22;20004;-93
2023/06/06 01:19:43;;;;;;;7.87;4.40;;;11.30;99.90;;;;;;6281524;22;20071;-94
2023/06/06 01:22:12;;;;;;;6.55;4.65;;;11.20;99.90;;;;;;6279981;22;20003;-93
2023/06/06 01:24:44;;;;;;;6.28;4.07;;;11.20;99.90;;;;;;6252728;22;20102;-94
2023/06/06 01:27:11;;;;;;;6.30;4.40;;;11.10;99.90;;;;;;6277832;22;20002;-94
2023/06/06 01:29:37;;;;;;;6.55;4.25;;;11.10;99.90;;;;;;6252236;22;20012;-93
2023/06/06 01:32:09;;;;;;;9.20;4.45;;;11.10;99.90;;;;;;6252635;22;20415;-93
2023/06/06 01:34:57;;;;;;;5.88;3.45;;;11.10;99.90;;;;;;6279462;22;20057;-95
2023/06/06 01:38:20;;;;;;;5.80;4.45;;;11.10;99.90;;;;;;6254990;22;20007;-92
2023/06/06 01:40:49;;;;;;;6.43;4.20;;;11.10;99.90;;;;;;6126733;23;20002;-92
2023/06/06 01:43:19;;;;;;;6.97;4.07;;;11.10;99.90;;;;;;6100698;23;20018;-91
2023/06/06 01:45:46;;;;;;;7.03;4.00;;;11.10;99.90;;;;;;6125662;23;20013;-93
2023/06/06 01:48:12;;;;;;;7.10;4.25;;;11.00;99.90;;;;;;6100830;23;20242;-93
2023/06/06 01:50:38;;;;;;;4.93;3.85;;;11.00;99.90;;;;;;6101768;23;20002;-92
2023/06/06 01:53:04;;;;;;;5.68;3.78;;;11.00;99.90;;;;;;6102169;23;20102;-92
2023/06/06 01:55:29;;;;;;;7.82;4.38;;;11.00;99.90;;;;;;6126353;23;20002;-92
2023/06/06 01:57:57;;;;;;;7.32;3.78;;;11.00;99.90;;;;;;6125841;23;20073;-93
2023/06/06 02:00:23;;;;;;;6.50;3.83;;;11.00;99.90;;;;;;6126693;23;20026;-90
2023/06/06 02:02:49;;;;;;;7.88;4.43;;;11.00;99.90;;;;;;6126243;23;20082;-91
2023/06/06 02:05:15;;;;;;;7.15;4.15;;;11.00;99.90;;;;;;6126394;23;20010;-90
2023/06/06 02:07:41;;;;;;;11.18;4.78;;;11.00;99.90;;;;;;6130136;23;20069;-90
2023/06/06 02:10:07;;;;;;;7.38;4.47;;;11.00;99.90;;;;;;6106418;23;20142;-89
2023/06/06 02:12:33;;;;;;;9.18;5.40;;;11.00;99.90;;;;;;6247159;22;20000;-91
2023/06/06 02:15:02;;;;;;;8.07;4.82;;;11.00;99.90;;;;;;6279454;22;20122;-91
2023/06/06 02:17:29;;;;;;;7.28;4.50;;;11.00;99.90;;;;;;6286258;22;20078;-92
2023/06/06 02:19:54;;;;;;;21.85;4.93;;;11.00;99.90;;;;;;6260584;22;20016;-92
2023/06/06 02:22:20;;;;;;;8.30;4.60;;;11.10;99.90;;;;;;6263790;22;20030;-93
2023/06/06 02:24:46;;;;;;;11.93;5.22;;;11.10;99.90;;;;;;6282142;22;20003;-93
2023/06/06 02:27:14;;;;;;;7.43;4.53;;;11.10;99.90;;;;;;6251107;22;20011;-93
2023/06/06 02:29:40;;;;;;;7.75;5.18;;;11.10;99.90;;;;;;6251079;22;20000;-92
2023/06/06 02:32:06;;;;;;;10.00;4.65;;;11.10;99.90;;;;;;6250335;22;20023;-93
2023/06/06 02:34:32;;;;;;;6.50;4.28;;;11.10;99.90;;;;;;6275704;22;20007;-92
2023/06/06 02:36:59;;;;;;;5.75;4.13;;;11.10;99.90;;;;;;6252229;22;20015;-92
2023/06/06 02:39:25;;;;;;;5.97;4.38;;;11.10;99.90;;;;;;6252138;22;20461;-94
2023/06/06 02:41:51;;;;;;;8.35;4.35;;;11.10;99.90;;;;;;6252847;22;19999;-92
2023/06/06 02:44:19;;;;;;;5.53;4.20;;;11.10;99.90;;;;;;6251971;22;20023;-94
2023/06/06 02:46:46;;;;;;;7.72;4.78;;;11.10;99.90;;;;;;6252573;22;20006;-92
2023/06/06 02:49:11;;;;;;;6.97;4.47;;;11.00;99.90;;;;;;6252478;22;20011;-93
2023/06/06 02:51:37;;;;;;;13.10;4.90;;;11.00;99.90;;;;;;6251528;22;20011;-94
2023/06/06 02:54:03;;;;;;;7.65;4.90;;;11.00;99.90;;;;;;6251817;22;20462;-89
2023/06/06 02:56:29;;;;;;;7.18;5.05;;;11.00;99.90;;;;;;6251652;22;20039;-94
2023/06/06 02:58:55;;;;;;;12.70;4.95;;;11.00;99.90;;;;;;6278434;22;20008;-92
2023/06/06 03:01:21;;;;;;;9.38;5.47;;;11.00;99.90;;;;;;6251153;22;20086;-93
2023/06/06 03:03:47;;;;;;;9.30;6.22;;;11.00;99.90;;;;;;6251324;22;20024;-93
2023/06/06 03:06:15;;;;;;;9.95;6.22;;;10.90;99.90;;;;;;6251212;22;20079;-92
2023/06/06 03:08:42;;;;;;;11.38;6.38;;;10.90;99.90;;;;;;6277717;22;20078;-92
2023/06/06 03:11:08;;;;;;;10.02;6.70;;;10.90;99.90;;;;;;6250708;22;20427;-93
2023/06/06 03:13:34;;;;;;;14.73;7.82;;;10.90;99.90;;;;;;6250908;22;20042;-91
2023/06/06 03:15:59;;;;;;;11.68;7.40;;;10.90;99.90;;;;;;6277961;22;20031;-91
2023/06/06 03:18:25;;;;;;;11.75;6.60;;;10.80;99.90;;;;;;6263691;22;20007;-89
2023/06/06 03:20:51;;;;;;;9.32;5.85;;;10.80;99.90;;;;;;6267434;22;20004;-93
2023/06/06 03:23:17;;;;;;;10.15;5.93;;;10.80;99.90;;;;;;6253362;22;20022;-93
2023/06/06 03:25:44;;;;;;;9.98;5.60;;;10.70;99.90;;;;;;6252540;22;20434;-94
2023/06/06 03:28:10;;;;;;;9.05;5.32;;;10.70;99.90;;;;;;6254015;22;20058;-94
2023/06/06 03:30:37;;;;;;;8.82;6.22;;;10.70;99.90;;;;;;6253384;22;20003;-95
2023/06/06 03:33:05;;;;;;;9.15;5.75;;;10.70;99.90;;;;;;6254529;22;20510;-94
2023/06/06 03:35:33;;;;;;;10.57;6.15;;;10.60;99.90;;;;;;6254935;22;20000;-94
2023/06/06 03:37:59;;;;;;;11.27;5.45;;;10.60;99.90;;;;;;6253490;22;20500;-92
2023/06/06 03:40:25;;;;;;;9.95;7.03;;;10.50;99.90;;;;;;6255747;22;19999;-92
2023/06/06 03:42:51;;;;;;;13.07;6.60;;;10.50;99.90;;;;;;6282090;22;20015;-93
2023/06/06 03:45:18;;;;;;;11.80;7.60;;;10.50;99.90;;;;;;6280304;22;20423;-93
2023/06/06 03:47:45;;;;;;;13.90;8.10;;;10.50;99.90;;;;;;6279111;22;20023;-93
2023/06/06 03:50:11;;;;;;;14.77;8.15;;;10.50;99.90;;;;;;6252227;22;20000;-93
2023/06/06 03:52:40;;;;;;;14.27;8.40;;;10.60;99.90;;;;;;6251917;22;20491;-93
2023/06/06 03:55:07;;;;;;;16.50;8.95;;;10.60;99.90;;;;;;6252163;22;20008;-94
2023/06/06 03:57:36;;;;;;;13.43;8.50;;;10.60;99.90;;;;;;6252478;22;20343;-92
2023/06/06 04:00:10;;;;;;;12.98;8.10;;;10.60;99.90;;;;;;6251956;22;20493;-94
2023/06/06 04:02:39;;;;;;;15.75;9.23;;;10.60;99.90;;;;;;6279128;22;20003;-93
2023/06/06 04:05:06;;;;;;;14.32;8.82;;;10.60;99.90;;;;;;6252604;22;20012;-93
2023/06/06 04:07:32;;;;;;;11.73;8.52;;;10.70;99.90;;;;;;6287679;22;19983;-91
2023/06/06 04:09:58;;;;;;;13.50;8.43;;;10.60;99.90;;;;;;6296651;22;20011;-94
2023/06/06 04:12:24;;;;;;;12.05;8.23;;;10.60;99.90;;;;;;6252014;22;20011;-94
2023/06/06 04:14:50;;;;;;;16.23;8.88;;;10.60;99.90;;;;;;6278969;22;20000;-95
2023/06/06 04:17:15;;;;;;;14.13;8.52;;;10.60;99.90;;;;;;6279202;22;20441;-93
2023/06/06 04:19:41;;;;;;;13.45;8.10;;;10.60;99.90;;;;;;6252375;22;20004;-92
2023/06/06 04:22:07;;;;;;;14.80;8.48;;;10.60;99.90;;;;;;6279586;22;20010;-91
2023/06/06 04:24:33;;;;;;;10.40;7.32;;;10.60;99.90;;;;;;6253449;22;20007;-91
2023/06/06 04:27:03;;;;;;;14.88;8.48;;;10.60;99.90;;;;;;6286931;22;20000;-92
2023/06/06 04:29:32;;;;;;;17.27;9.10;;;10.60;99.90;;;;;;6262658;22;20004;-90
2023/06/06 04:31:59;;;;;;;15.73;9.02;;;10.60;99.90;;;;;;6298344;22;20003;-93
2023/06/06 04:34:29;;;;;;;15.15;9.98;;;10.60;99.90;;;;;;6269772;22;19994;-91
2023/06/06 04:36:56;;;;;;;;;;;10.60;99.90;;;;;;6294927;22;20046;-92
2023/06/06 04:39:24;;;;;;;15.63;9.32;;;10.60;99.90;;;;;;6269510;22;19899;-93
2023/06/06 04:41:50;;;;;;;17.02;10.13;;;10.70;99.90;;;;;;6295112;22;20010;-94
2023/06/06 04:44:17;;;;;;;20.40;10.43;;;10.70;99.90;;;;;;6292345;22;20015;-95
2023/06/06 04:46:43;;;;;;;17.88;10.18;;;10.70;99.90;;;;;;6267100;22;20006;-91
2023/06/06 04:49:09;;;;;;;17.25;10.25;;;10.70;99.90;;;;;;6268154;22;20015;-92
2023/06/06 04:51:37;;;;;;;17.63;10.07;;;10.70;99.90;;;;;;6270988;22;20033;-93
2023/06/06 04:54:08;;;;;;;18.50;11.05;;;10.70;99.90;;;;;;6299665;22;20007;-86
2023/06/06 04:56:34;;;;;;;19.30;10.10;;;10.60;99.90;;;;;;6335882;22;20007;-84
2023/06/06 04:59:06;;;;;;;14.90;9.32;;;10.60;99.90;;;;;;6303306;22;20026;-84
2023/06/06 05:01:36;;;;;;;17.42;10.07;;;10.60;99.90;;;;;;6298252;22;19991;-85
2023/06/06 05:04:03;;;;;;;13.98;9.23;;;10.60;99.90;;;;;;6296876;22;20166;-85
2023/06/06 05:06:33;;;;;;;15.35;9.93;;;10.50;99.90;;;;;;6309217;22;20015;-84
2023/06/06 05:09:03;;;;;;;14.32;9.02;;;10.50;99.90;;;;;;6308314;22;20038;-85
2023/06/06 05:11:29;;;;;;;13.65;8.27;;;10.60;99.90;;;;;;6309000;22;20089;-85
2023/06/06 05:13:55;;;;;;;15.85;8.57;;;10.60;99.90;;;;;;6334395;22;20019;-92
2023/06/06 05:16:21;;;;;;;11.27;7.38;;;10.50;99.90;;;;;;6308594;22;20005;-84
2023/06/06 05:18:47;;;;;;;13.10;7.60;;;10.60;99.90;;;;;;6308270;22;20015;-93
2023/06/06 05:21:14;;;;;;;10.90;7.43;;;10.60;99.90;;;;;;6304669;22;20003;-94
2023/06/06 05:23:40;;;;;;;13.52;7.22;;;10.70;99.90;;;;;;6308759;22;20018;-89
2023/06/06 05:26:06;;;;;;;11.73;5.97;;;10.70;99.90;;;;;;6323113;22;20003;-94
2023/06/06 05:28:31;;;;;;;9.38;5.35;;;10.70;99.90;;;;;;6321979;22;20377;-92
2023/06/06 05:30:57;;;;;;;10.45;6.40;;;10.70;99.90;;;;;;6320282;22;20014;-93
2023/06/06 05:33:26;;;;;;;10.35;6.30;;;10.70;99.90;;;;;;6304772;22;20011;-90
2023/06/06 05:35:55;;;;;;;10.75;6.30;;;10.70;99.90;;;;;;6293727;22;20006;-93
2023/06/06 05:38:21;;;;;;;7.30;5.63;;;10.70;99.90;;;;;;6294725;22;20018;-93
2023/06/06 05:40:47;;;;;;;9.77;6.47;;;10.70;99.90;;;;;;6295344;22;20034;-93
2023/06/06 05:43:14;;;;;;;10.68;6.40;;;10.70;99.90;;;;;;6290096;22;20358;-95
2023/06/06 05:45:40;;;;;;;9.60;6.45;;;10.70;99.90;;;;;;6286814;22;19995;-94
2023/06/06 05:48:06;;;;;;;9.85;6.53;;;10.70;99.90;;;;;;6312926;22;20010;-93
2023/06/06 05:50:32;;;;;;;9.65;5.75;;;10.70;99.90;;;;;;6284842;22;20007;-95
2023/06/06 05:52:58;;;;;;;9.90;6.93;;;10.70;99.90;;;;;;6284216;22;20011;-94
2023/06/06 05:55:30;;;;;;;9.73;6.10;;;10.70;99.90;;;;;;6284423;22;20003;-94
2023/06/06 05:57:56;;;;;;;8.60;6.10;;;10.70;99.90;;;;;;6284591;22;20083;-95
2023/06/06 06:00:27;;;;;;;7.80;5.47;;;10.70;99.90;;;;;;6284732;22;20003;-95
2023/06/06 06:02:56;;;;;;;7.80;4.90;;;10.80;99.90;;;;;;6284835;22;20030;-94
2023/06/06 06:05:23;;;;;;;8.85;5.57;;;10.80;99.90;;;;;;6284927;22;20008;-94
2023/06/06 06:07:54;;;;;;;7.18;4.93;;;10.80;99.90;;;;;;6287670;22;20030;-94
2023/06/06 06:10:20;;;;;;;7.22;5.00;;;10.80;99.90;;;;;;6313427;22;20022;-93
2023/06/06 06:12:46;;;;;;;8.93;4.93;;;10.90;99.90;;;;;;6308802;22;20011;-93
2023/06/06 06:15:11;;;;;;;7.20;4.82;;;10.90;99.90;;;;;;6309029;22;20346;-93
2023/06/06 06:17:37;;;;;;;6.82;4.80;;;10.90;99.90;;;;;;6284799;22;20077;-90
2023/06/06 06:20:08;;;;;;;7.65;4.78;;;10.90;99.90;;;;;;6284153;22;19999;-93
2023/06/06 06:22:34;;;;;;;;;;;10.90;99.90;;;;;;6284647;22;20071;-92
2023/06/06 06:25:00;;;;;;;8.02;5.35;;;10.90;99.90;;;;;;6283078;22;20238;-90
2023/06/06 06:27:26;;;;;;;8.80;5.43;;;10.90;99.90;;;;;;6310613;22;19999;-91
2023/06/06 06:29:51;;;;;;;10.23;5.85;;;10.90;99.90;;;;;;6282721;22;20114;-92
2023/06/06 06:32:17;;;;;;;9.50;5.22;;;10.90;99.90;;;;;;6310146;22;20030;-91
2023/06/06 06:34:43;;;;;;;8.73;5.10;;;10.90;99.90;;;;;;6282651;22;20394;-93
2023/06/06 06:37:09;;;;;;;7.95;5.43;;;10.80;99.90;;;;;;6310145;22;20003;-93
2023/06/06 06:39:35;;;;;;;7.38;5.22;;;10.90;99.90;;;;;;6309470;22;20487;-91
2023/06/06 06:42:01;;;;;;;7.85;5.25;;;10.90;99.90;;;;;;6283042;22;20015;-88
2023/06/06 06:44:26;;;;;;;6.93;4.90;;;10.90;99.90;;;;;;6282655;22;20098;-90
2023/06/06 06:46:52;;;;;;;7.40;5.45;;;11.00;99.90;;;;;;6309722;22;20017;-92
2023/06/06 06:49:18;;;;;;;9.60;5.20;;;11.10;99.90;;;;;;6283086;22;20315;-92
2023/06/06 06:51:44;;;;;;;9.57;4.95;;;11.10;99.90;;;;;;6282677;22;20005;-91
2023/06/06 06:54:13;;;;;;;7.95;5.07;;;11.00;99.90;;;;;;6282472;22;20056;-92
2023/06/06 06:56:42;;;;;;;6.88;4.32;;;11.10;99.90;;;;;;6311773;22;20437;-91
2023/06/06 06:59:09;;;;;;;7.15;4.85;;;11.10;99.90;;;;;;6282373;22;20083;-92
2023/06/06 07:01:37;;;;;;;6.72;4.55;;;11.10;99.90;;;;;;6308708;22;20014;-93
2023/06/06 07:04:05;;;;;;;6.95;4.25;;;11.10;99.90;;;;;;6309019;22;20402;-89
2023/06/06 07:06:33;;;;;;;7.22;4.78;;;11.20;99.90;;;;;;6281585;22;20375;-92
2023/06/06 07:09:00;;;;;;;6.75;4.47;;;11.20;99.90;;;;;;6309674;22;20056;-88
2023/06/06 07:11:27;;;;;;;7.75;4.35;;;11.20;99.90;;;;;;6282936;22;20034;-91
2023/06/06 07:13:52;;;;;;;7.55;4.95;;;11.30;99.90;;;;;;6284212;22;20028;-90
2023/06/06 07:16:18;;;;;;;7.95;4.75;;;11.20;99.90;;;;;;6281868;22;20008;-93
2023/06/06 07:18:47;;;;;;;7.22;4.97;;;11.20;99.90;;;;;;6282014;22;20491;-90
2023/06/06 07:21:13;;;;;;;6.97;4.70;;;11.20;99.90;;;;;;6281952;22;20415;-91
2023/06/06 07:23:39;;;;;;;9.45;5.47;;;11.20;99.90;;;;;;6284131;22;20046;-92
2023/06/06 07:26:10;;;;;;;10.02;5.47;;;11.30;99.90;;;;;;6287099;22;20030;-94
2023/06/06 07:28:35;;;;;;;9.07;5.00;;;11.30;99.90;;;;;;6335625;22;20082;-90
2023/06/06 07:31:02;;;;;;;9.00;4.88;;;11.30;99.90;;;;;;6293223;22;20008;-94
2023/06/06 07:33:28;;;;;;;8.88;4.95;;;11.40;99.90;;;;;;6301208;22;20018;-93
2023/06/06 07:35:53;;;;;;;8.35;5.22;;;11.40;99.90;;;;;;6292359;22;20011;-94
2023/06/06 07:38:19;;;;;;;7.00;4.75;;;11.40;99.90;;;;;;6292343;22;19991;-93
2023/06/06 07:40:45;;;;;;;10.40;5.50;;;11.50;99.90;;;;;;6298254;22;20010;-94
2023/06/06 07:43:11;;;;;;;8.27;5.03;;;11.50;99.90;;;;;;6289579;22;20031;-95
2023/06/06 07:45:37;;;;;;;9.45;5.60;;;11.50;99.90;;;;;;6289744;22;20027;-94
2023/06/06 07:48:03;;;;;;;8.98;5.50;;;11.60;99.90;;;;;;6280208;22;20330;-95
2023/06/06 07:50:29;;;;;;;11.50;6.43;;;11.60;99.90;;;;;;6309969;22;20003;-93
2023/06/06 07:52:55;;;;;;;9.75;5.88;;;11.60;99.90;;;;;;6283267;22;20015;-94
2023/06/06 07:55:21;;;;;;;10.70;6.18;;;11.60;99.90;;;;;;6310600;22;19999;-92
2023/06/06 07:57:46;;;;;;;10.35;5.78;;;11.70;99.90;;;;;;6283397;22;20015;-93
2023/06/06 08:00:13;;;;;;;9.45;5.95;;;11.70;99.90;;;;;;6310657;22;19996;-94
2023/06/06 08:02:40;;;;;;;8.20;5.63;;;11.70;99.90;;;;;;6284723;22;20272;-93
2023/06/06 08:05:06;;;;;;;9.27;4.97;;;11.70;99.90;;;;;;6284275;22;20007;-93
2023/06/06 08:07:38;;;;;;;8.88;5.00;;;11.70;99.90;;;;;;6284184;22;20373;-95
2023/06/06 08:10:06;;;;;;;14.80;5.72;;;11.70;99.90;;;;;;6284206;22;20064;-93
2023/06/06 08:12:32;;;;;;;10.13;5.90;;;11.70;99.90;;;;;;6282579;22;20000;-93
2023/06/06 08:14:58;;;;;;;10.25;5.07;;;11.70;99.90;;;;;;6284548;22;20003;-92
2023/06/06 08:17:25;;;;;;;8.02;5.40;;;11.70;99.90;;;;;;6282304;22;20022;-93
2023/06/06 08:19:55;;;;;;;7.15;4.97;;;11.80;99.90;;;;;;6283431;22;20011;-93
2023/06/06 08:22:20;;;;;;;11.50;4.97;;;11.90;99.90;;;;;;6281407;22;20513;-93
2023/06/06 08:24:46;;;;;;;6.80;4.30;;;11.90;99.90;;;;;;6282199;22;20013;-95
2023/06/06 08:27:11;;;;;;;7.95;4.00;;;11.90;99.90;;;;;;6317507;22;20000;-90
2023/06/06 08:29:37;;;;;;;7.40;4.50;;;12.00;99.90;;;;;;6295319;22;20111;-90
2023/06/06 08:32:04;;;;;;;6.60;4.25;;;12.00;99.90;;;;;;6282431;22;20082;-91
2023/06/06 08:34:30;;;;;;;8.10;4.70;;;12.10;99.90;;;;;;6283015;22;20414;-91
2023/06/06 08:36:56;;;;;;;8.90;4.82;;;12.10;99.90;;;;;;6310278;22;20030;-92
2023/06/06 08:39:22;;;;;;;7.82;4.80;;;12.10;99.90;;;;;;6285099;22;20082;-93
2023/06/06 08:41:52;;;;;;;10.15;5.63;;;12.10;99.90;;;;;;6297480;22;20013;-92
2023/06/06 08:44:22;;;;;;;10.98;5.40;;;12.20;99.90;;;;;;6281744;22;20015;-93
2023/06/06 08:46:52;;;;;;;10.98;5.57;;;12.20;99.90;;;;;;6308425;22;20005;-92
2023/06/06 08:49:19;;;;;;;9.05;5.82;;;12.20;99.90;;;;;;6280930;22;20007;-92
2023/06/06 08:51:48;;;;;;;10.27;6.20;;;12.20;99.90;;;;;;6280280;22;20007;-91
2023/06/06 08:54:14;;;;;;;9.30;6.13;;;12.20;99.90;;;;;;6281066;22;19999;-94
2023/06/06 08:56:44;;;;;;;9.52;7.05;;;12.20;99.90;;;;;;6309795;22;20009;-92
2023/06/06 08:59:10;;;;;;;10.80;7.87;;;12.20;99.90;;;;;;6284834;22;20488;-91
2023/06/06 09:01:38;;;;;;;12.05;7.82;;;12.10;99.90;;;;;;6310350;22;20422;-94
2023/06/06 09:04:06;;;;;;;13.55;8.15;;;12.20;99.90;;;;;;6284636;22;20023;-92
2023/06/06 09:06:38;;;;;;;13.18;8.43;;;12.10;99.90;;;;;;6310366;22;20003;-93
2023/06/06 09:09:05;;;;;;;13.13;8.85;;;12.10;99.90;;;;;;6290355;22;20003;-92
2023/06/06 09:11:31;;;;;;;13.70;8.68;;;12.20;99.90;;;;;;6293185;22;19999;-91
2023/06/06 09:13:57;;;;;;;13.30;9.18;;;12.20;99.90;;;;;;6323341;22;20062;-89
2023/06/06 09:16:26;;;;;;;13.52;8.73;;;12.20;99.90;;;;;;6331476;22;20002;-86
2023/06/06 09:18:52;;;;;;;13.60;8.55;;;12.20;99.90;;;;;;6304878;22;20003;-87
2023/06/06 09:21:18;;;;;;;11.85;7.80;;;12.20;99.90;;;;;;6308265;22;20002;-88
2023/06/06 09:23:44;;;;;;;11.55;7.97;;;12.30;99.90;;;;;;6305542;22;20012;-88
2023/06/06 09:26:20;;;;;;;9.80;7.25;;;12.40;99.90;;;;;;6332700;22;20010;-89
2023/06/06 09:28:48;;;;;;;10.20;6.35;;;12.50;99.90;;;;;;6334129;22;20004;-89
2023/06/06 09:31:27;;;;;;;9.15;6.45;;;12.50;99.90;;;;;;6308319;22;20007;-92
2023/06/06 09:33:55;;;;;;;9.30;5.88;;;12.50;99.90;;;;;;6306886;22;20003;-92
2023/06/06 09:36:29;;;;;;;9.82;5.65;;;12.60;99.90;;;;;;6300773;22;20090;-93
2023/06/06 09:39:03;;;;;;;9.13;6.00;;;12.60;99.90;;;;;;6313668;22;20082;-94
2023/06/06 09:41:29;;;;;;;10.27;5.75;;;12.60;99.90;;;;;;6287454;22;20007;-94
2023/06/06 09:43:55;;;;;;;9.93;5.50;;;12.70;99.90;;;;;;6286901;22;20050;-91
2023/06/06 09:46:21;;;;;;;11.35;5.57;;;12.80;99.90;;;;;;6286128;22;20006;-93
2023/06/06 09:48:56;;;;;;;11.43;5.65;;;12.90;99.90;;;;;;6286042;22;20015;-93
2023/06/06 09:51:22;;;;;;;7.47;5.32;;;12.90;99.90;;;;;;6287680;22;20022;-94
2023/06/06 09:53:51;;;;;;;8.23;5.45;;;12.90;99.90;;;;;;6301063;22;20022;-94
2023/06/06 09:56:24;;;;;;;7.63;4.57;;;12.90;99.90;;;;;;6289394;22;20011;-90
2023/06/06 09:58:57;;;;;;;7.15;4.32;;;12.90;99.90;;;;;;6281946;22;20373;-93
2023/06/06 10:01:28;;;;;;;6.00;4.30;;;12.90;99.90;;;;;;6310101;22;20003;-92
2023/06/06 10:03:57;;;;;;;5.75;4.68;;;13.00;99.90;;;;;;6282112;22;20019;-94
2023/06/06 10:06:26;;;;;;;7.05;4.88;;;13.00;99.90;;;;;;6281613;22;20038;-95
2023/06/06 10:08:53;;;;;;;7.97;5.30;;;13.10;99.90;;;;;;6309492;22;19999;-95
2023/06/06 10:11:21;;;;;;;7.60;5.03;;;13.20;99.90;;;;;;6282894;22;20003;-92
2023/06/06 10:13:49;;;;;;;8.60;5.53;;;13.20;99.90;;;;;;6282459;22;20007;-93
2023/06/06 10:16:15;;;;;;;9.43;5.35;;;13.20;99.90;;;;;;6287284;22;20018;-94
2023/06/06 10:18:42;;;;;;;8.25;5.10;;;13.30;99.90;;;;;;6309542;22;20086;-92
2023/06/06 10:21:09;;;;;;;9.90;6.20;;;13.30;99.90;;;;;;6284574;22;20056;-92
2023/06/06 10:23:35;;;;;;;8.25;5.57;;;13.40;99.90;;;;;;6310682;22;20137;-90
2023/06/06 10:26:02;;;;;;;8.77;5.63;;;13.40;99.90;;;;;;6282123;22;20339;-91
2023/06/06 10:28:33;;;;;;;8.15;5.43;;;13.40;99.90;;;;;;6308255;22;20023;-93
2023/06/06 10:31:02;;;;;;;7.05;5.18;;;13.50;99.90;;;;;;6309717;22;19999;-93
2023/06/06 10:33:44;;;;;;;9.13;6.13;;;13.50;99.90;;;;;;6284275;22;20035;-92
2023/06/06 10:36:17;;;;;;;8.48;4.80;;;13.50;99.90;;;;;;6289384;22;20011;-94
2023/06/06 10:39:22;;;;;;;8.98;5.82;;;13.50;99.90;;;;;;6291812;22;20070;-96
2023/06/06 10:42:06;;;;;;;7.80;5.78;;;13.60;99.90;;;;;;6314610;22;19995;-92
2023/06/06 10:44:53;;;;;;;8.50;5.97;;;13.60;99.90;;;;;;6312318;22;20007;-93
2023/06/06 10:47:33;;;;;;;8.35;5.78;;;13.60;99.90;;;;;;6311064;22;20056;-91
2023/06/06 10:50:08;;;;;;;9.02;6.30;;;13.50;99.90;;;;;;6309323;22;20008;-92
2023/06/06 10:52:51;;;;;;;9.88;7.03;;;13.50;99.90;;;;;;6282613;22;20015;-94
2023/06/06 10:55:22;;;;;;;10.30;6.57;;;13.50;99.90;;;;;;6310656;22;20382;-96
2023/06/06 10:58:15;;;;;;;11.60;6.93;;;13.50;99.90;;;;;;6287587;22;20057;-91
2023/06/06 11:00:44;;;;;;;9.88;6.97;;;13.50;99.90;;;;;;6281893;22;20015;-95
2023/06/06 11:03:15;;;;;;;12.40;7.00;;;13.40;99.90;;;;;;6287396;22;20151;-95
2023/06/06 11:06:11;;;;;;;9.80;6.20;;;13.30;99.90;;;;;;6310958;22;20003;-94
2023/06/06 11:08:42;;;;;;;9.80;5.93;;;13.30;99.90;;;;;;6285042;22;20019;-93
2023/06/06 11:11:18;;;;;;;7.75;5.20;;;13.40;99.90;;;;;;6284095;22;20122;-94
2023/06/06 11:14:06;;;;;;;7.88;5.55;;;13.40;99.90;;;;;;6284609;22;20007;-92
2023/06/06 11:16:37;;;;;;;9.00;5.70;;;13.50;99.90;;;;;;6284768;22;20082;-93
2023/06/06 11:19:17;;;;;;;9.70;5.47;;;13.50;99.90;;;;;;6283138;22;20018;-93
2023/06/06 11:21:48;;;;;;;10.18;5.35;;;13.50;99.90;;;;;;6295846;22;20006;-93
2023/06/06 11:24:21;;;;;;;8.73;5.22;;;13.50;99.90;;;;;;6298650;22;20007;-92
2023/06/06 11:26:49;;;;;;;9.45;4.68;;;13.40;99.90;;;;;;6305632;22;20023;-94
2023/06/06 11:29:15;;;;;;;6.55;4.30;;;13.40;99.90;;;;;;6303493;22;20080;-94
2023/06/06 11:31:42;;;;;;;5.75;4.13;;;13.50;99.90;;;;;;6333157;22;20010;-86
2023/06/06 11:34:12;;;;;;;7.20;4.68;;;13.60;99.90;;;;;;6336456;22;19983;-86
2023/06/06 11:36:44;;;;;;;4.33;3.43;;;13.70;99.90;;;;;;6302280;22;20098;-94
2023/06/06 11:39:11;;;;;;;5.28;3.65;;;13.70;99.90;;;;;;6293504;22;20345;-92
2023/06/06 11:41:41;;;;;;;5.60;3.25;;;13.80;99.90;;;;;;6323355;22;20007;-93
2023/06/06 11:44:07;;;;;;;5.25;3.40;;;13.80;99.90;;;;;;6291820;22;20003;-92
2023/06/06 11:46:53;;;;;;;4.38;3.08;;;13.80;99.90;;;;;;6285647;22;20030;-90
2023/06/06 11:49:21;;;;;;;4.15;2.80;;;13.80;99.90;;;;;;6283344;22;20003;-94
2023/06/06 11:51:57;;;;;;;3.55;3.15;;;13.90;99.90;;;;;;6307795;22;20338;-92
2023/06/06 11:54:27;;;;;;;5.65;2.80;;;13.90;99.90;;;;;;6281554;22;20003;-93
2023/06/06 11:56:56;;;;;;;6.22;3.92;;;13.90;99.90;;;;;;6282483;22;20063;-93
2023/06/06 11:59:22;;;;;;;7.28;4.28;;;13.80;99.90;;;;;;6282295;22;20007;-92
2023/06/06 12:01:50;;;;;;;6.40;5.20;;;13.90;99.90;;;;;;6283495;22;20014;-94
2023/06/06 12:04:26;;;;;;;8.85;5.40;;;14.00;99.90;;;;;;6282405;22;20018;-92
2023/06/06 12:06:54;;;;;;;8.00;6.20;;;14.00;99.90;;;;;;6290031;22;19999;-92
2023/06/06 12:09:24;;;;;;;8.27;6.65;;;14.10;99.90;;;;;;6299712;22;20010;-93
2023/06/06 12:11:59;;;;;;;9.30;6.57;;;14.20;99.90;;;;;;6282996;22;20053;-93
2023/06/06 12:14:26;;;;;;;8.02;6.38;;;14.20;99.90;;;;;;6283229;22;20007;-91
2023/06/06 12:16:52;;;;;;;4.75;4.25;;;14.10;99.90;;;;;;6310844;22;20431;-92
2023/06/06 12:19:19;;;;;;;5.28;4.22;;;14.10;99.90;;;;;;6283126;22;20007;-93
2023/06/06 12:21:49;;;;;;;8.32;4.25;;;14.10;99.90;;;;;;6283365;22;20393;-94
2023/06/06 12:24:23;;;;;;;5.18;4.15;;;14.20;99.90;;;;;;6283033;22;20442;-93
2023/06/06 12:27:11;;;;;;;10.07;4.00;;;14.20;99.90;;;;;;6311032;22;20576;-93
2023/06/06 12:29:50;;;;;;;4.18;3.58;;;14.20;99.90;;;;;;6282669;22;20063;-94
2023/06/06 12:32:21;;;;;;;5.13;3.38;;;14.30;99.90;;;;;;6282929;22;20030;-93
2023/06/06 12:34:59;;;;;;;8.77;3.20;;;14.30;99.90;;;;;;6285318;22;20008;-93
2023/06/06 12:37:41;;;;;;;6.38;2.65;;;14.30;99.90;;;;;;6310016;22;20406;-94
2023/06/06 12:40:27;;;;;;;3.22;2.40;;;14.30;99.90;;;;;;6282601;22;20027;-94
2023/06/06 12:42:56;;;;;;;5.90;3.08;;;14.40;99.90;;;;;;6284559;22;20011;-93
2023/06/06 12:45:24;;;;;;;3.13;2.47;;;14.40;99.90;;;;;;6293199;22;20057;-92
2023/06/06 12:47:51;;;;;;;3.08;2.30;;;14.30;99.90;;;;;;6298995;22;20011;-94
2023/06/06 12:50:17;;;;;;;3.60;2.35;;;14.40;99.90;;;;;;6282915;22;20488;-94